sensor_id;sensor_type;location;lat;lon;timestamp;temperature;humidity
31387;DHT22;18017;50.124;8.688;2022-08-16T00:00:29;20.70;99.90
31387;DHT22;18017;50.124;8.688;2022-08-16T00:02:56;20.60;99.90
31387;DHT22;18017;50.124;8.688;2022-08-16T00:05:23;20.60;99.90
31387;DHT22;18017;50.124;8.688;2022-08-16T00:07:50;20.60;99.90
31387;DHT22;18017;50.124;8.688;2022-08-16T00:10:16;20.60;99.90
31387;DHT22;18017;50.124;8.688;2022-08-16T00:12:42;20.50;99.90
31387;DHT22;18017;50.124;8.688;2022-08-16T00:15:15;20.50;99.90
31387;DHT22;18017;50.124;8.688;2022-08-16T00:17:41;20.50;99.90
31387;DHT22;18017;50.124;8.688;2022-08-16T00:20:08;20.50;99.90
31387;DHT22;18017;50.124;8.688;2022-08-16T00:22:36;20.40;99.90
31387;DHT22;18017;50.124;8.688;2022-08-16T00:25:03;20.50;99.90
31387;DHT22;18017;50.124;8.688;2022-08-16T00:27:29;20.50;99.90
31387;DHT22;18017;50.124;8.688;2022-08-16T00:29:55;20.40;99.90
31387;DHT22;18017;50.124;8.688;2022-08-16T00:32:20;20.40;99.90
31387;DHT22;18017;50.124;8.688;2022-08-16T00:34:46;20.30;99.90
31387;DHT22;18017;50.124;8.688;2022-08-16T00:37:12;20.30;99.90
31387;DHT22;18017;50.124;8.688;2022-08-16T00:39:38;20.30;99.90
31387;DHT22;18017;50.124;8.688;2022-08-16T00:42:04;20.30;99.90
31387;DHT22;18017;50.124;8.688;2022-08-16T00:44:30;20.30;99.90
31387;DHT22;18017;50.124;8.688;2022-08-16T00:47:06;20.30;99.90
31387;DHT22;18017;50.124;8.688;2022-08-16T00:49:35;20.30;99.90
31387;DHT22;18017;50.124;8.688;2022-08-16T00:52:01;20.20;99.90
31387;DHT22;18017;50.124;8.688;2022-08-16T00:54:28;20.20;99.90
31387;DHT22;18017;50.124;8.688;2022-08-16T00:56:55;20.20;99.90
31387;DHT22;18017;50.124;8.688;2022-08-16T00:59:24;20.20;99.90
31387;DHT22;18017;50.124;8.688;2022-08-16T01:01:51;20.20;99.90
31387;DHT22;18017;50.124;8.688;2022-08-16T01:04:20;20.20;99.90
31387;DHT22;18017;50.124;8.688;2022-08-16T01:06:46;20.10;99.90
31387;DHT22;18017;50.124;8.688;2022-08-16T01:09:12;20.10;99.90
31387;DHT22;18017;50.124;8.688;2022-08-16T01:11:39;20.10;99.90
31387;DHT22;18017;50.124;8.688;2022-08-16T01:14:20;20.10;99.90
31387;DHT22;18017;50.124;8.688;2022-08-16T01:16:47;20.10;99.90
31387;DHT22;18017;50.124;8.688;2022-08-16T01:19:26;20.10;99.90
31387;DHT22;18017;50.124;8.688;2022-08-16T01:21:54;20.10;99.90
31387;DHT22;18017;50.124;8.688;2022-08-16T01:27:12;20.00;99.90
31387;DHT22;18017;50.124;8.688;2022-08-16T01:29:46;20.00;99.90
31387;DHT22;18017;50.124;8.688;2022-08-16T01:32:13;20.10;99.90
31387;DHT22;18017;50.124;8.688;2022-08-16T01:34:39;20.00;99.90
31387;DHT22;18017;50.124;8.688;2022-08-16T01:37:10;20.00;99.90
31387;DHT22;18017;50.124;8.688;2022-08-16T01:39:36;19.90;99.90
31387;DHT22;18017;50.124;8.688;2022-08-16T01:42:04;19.90;99.90
31387;DHT22;18017;50.124;8.688;2022-08-16T01:44:31;19.90;99.90
31387;DHT22;18017;50.124;8.688;2022-08-16T01:46:57;19.90;99.90
31387;DHT22;18017;50.124;8.688;2022-08-16T01:49:32;19.90;99.90
31387;DHT22;18017;50.124;8.688;2022-08-16T01:52:04;19.80;99.90
31387;DHT22;18017;50.124;8.688;2022-08-16T01:54:30;19.80;99.90
31387;DHT22;18017;50.124;8.688;2022-08-16T01:56:56;19.80;99.90
31387;DHT22;18017;50.124;8.688;2022-08-16T01:59:23;19.80;99.90
31387;DHT22;18017;50.124;8.688;2022-08-16T02:01:50;19.80;99.90
31387;DHT22;18017;50.124;8.688;2022-08-16T02:04:18;19.80;99.90
31387;DHT22;18017;50.124;8.688;2022-08-16T02:06:44;19.80;99.90
31387;DHT22;18017;50.124;8.688;2022-08-16T02:09:10;19.80;99.90
31387;DHT22;18017;50.124;8.688;2022-08-16T02:11:38;19.70;99.90
31387;DHT22;18017;50.124;8.688;2022-08-16T02:14:04;19.70;99.90
31387;DHT22;18017;50.124;8.688;2022-08-16T02:16:30;19.70;99.90
31387;DHT22;18017;50.124;8.688;2022-08-16T02:18:55;19.70;99.90
31387;DHT22;18017;50.124;8.688;2022-08-16T02:21:21;19.70;99.90
31387;DHT22;18017;50.124;8.688;2022-08-16T02:23:47;19.60;99.90
31387;DHT22;18017;50.124;8.688;2022-08-16T02:26:13;19.50;99.90
31387;DHT22;18017;50.124;8.688;2022-08-16T02:28:40;19.50;99.90
31387;DHT22;18017;50.124;8.688;2022-08-16T02:31:09;19.50;99.90
31387;DHT22;18017;50.124;8.688;2022-08-16T02:33:35;19.40;99.90
31387;DHT22;18017;50.124;8.688;2022-08-16T02:36:02;19.30;99.90
31387;DHT22;18017;50.124;8.688;2022-08-16T02:38:29;19.30;99.90
31387;DHT22;18017;50.124;8.688;2022-08-16T02:40:55;19.30;99.90
31387;DHT22;18017;50.124;8.688;2022-08-16T02:43:23;19.30;99.90
31387;DHT22;18017;50.124;8.688;2022-08-16T02:45:48;19.30;99.90
31387;DHT22;18017;50.124;8.688;2022-08-16T02:48:14;19.30;99.90
31387;DHT22;18017;50.124;8.688;2022-08-16T02:50:39;19.30;99.90
31387;DHT22;18017;50.124;8.688;2022-08-16T02:53:05;19.20;99.90
31387;DHT22;18017;50.124;8.688;2022-08-16T02:55:31;19.10;99.90
31387;DHT22;18017;50.124;8.688;2022-08-16T02:57:56;19.10;99.90
31387;DHT22;18017;50.124;8.688;2022-08-16T03:00:22;19.10;99.90
31387;DHT22;18017;50.124;8.688;2022-08-16T03:02:48;19.10;99.90
31387;DHT22;18017;50.124;8.688;2022-08-16T03:05:14;19.10;99.90
31387;DHT22;18017;50.124;8.688;2022-08-16T03:07:40;19.10;99.90
31387;DHT22;18017;50.124;8.688;2022-08-16T03:10:08;19.00;99.90
31387;DHT22;18017;50.124;8.688;2022-08-16T03:12:35;19.00;99.90
31387;DHT22;18017;50.124;8.688;2022-08-16T03:15:01;19.00;99.90
31387;DHT22;18017;50.124;8.688;2022-08-16T03:17:26;18.90;99.90
31387;DHT22;18017;50.124;8.688;2022-08-16T03:19:52;19.00;99.90
31387;DHT22;18017;50.124;8.688;2022-08-16T03:22:20;19.00;99.90
31387;DHT22;18017;50.124;8.688;2022-08-16T03:24:46;18.90;99.90
31387;DHT22;18017;50.124;8.688;2022-08-16T03:27:11;18.90;99.90
31387;DHT22;18017;50.124;8.688;2022-08-16T03:29:37;18.90;99.90
31387;DHT22;18017;50.124;8.688;2022-08-16T03:32:03;18.90;99.90
31387;DHT22;18017;50.124;8.688;2022-08-16T03:34:30;18.80;99.90
31387;DHT22;18017;50.124;8.688;2022-08-16T03:36:57;18.80;99.90
31387;DHT22;18017;50.124;8.688;2022-08-16T03:39:23;18.70;99.90
31387;DHT22;18017;50.124;8.688;2022-08-16T03:41:49;18.70;99.90
31387;DHT22;18017;50.124;8.688;2022-08-16T03:44:15;18.70;99.90
31387;DHT22;18017;50.124;8.688;2022-08-16T03:46:41;18.70;99.90
31387;DHT22;18017;50.124;8.688;2022-08-16T03:49:08;18.70;99.90
31387;DHT22;18017;50.124;8.688;2022-08-16T03:51:36;18.70;99.90
31387;DHT22;18017;50.124;8.688;2022-08-16T03:54:02;18.70;99.90
31387;DHT22;18017;50.124;8.688;2022-08-16T03:56:28;18.60;99.90
31387;DHT22;18017;50.124;8.688;2022-08-16T03:58:54;18.60;99.90
31387;DHT22;18017;50.124;8.688;2022-08-16T04:01:21;18.60;99.90
31387;DHT22;18017;50.124;8.688;2022-08-16T04:03:48;18.70;99.90
31387;DHT22;18017;50.124;8.688;2022-08-16T04:06:14;18.60;99.90
31387;DHT22;18017;50.124;8.688;2022-08-16T04:08:40;18.60;99.90
31387;DHT22;18017;50.124;8.688;2022-08-16T04:11:05;18.60;99.90
31387;DHT22;18017;50.124;8.688;2022-08-16T04:13:31;18.50;99.90
31387;DHT22;18017;50.124;8.688;2022-08-16T04:15:56;18.50;99.90
31387;DHT22;18017;50.124;8.688;2022-08-16T04:18:24;18.50;99.90
31387;DHT22;18017;50.124;8.688;2022-08-16T04:20:50;18.50;99.90
31387;DHT22;18017;50.124;8.688;2022-08-16T04:23:16;18.50;99.90
31387;DHT22;18017;50.124;8.688;2022-08-16T04:25:41;18.60;99.90
31387;DHT22;18017;50.124;8.688;2022-08-16T04:28:08;18.60;99.90
31387;DHT22;18017;50.124;8.688;2022-08-16T04:30:33;18.60;99.90
31387;DHT22;18017;50.124;8.688;2022-08-16T04:32:59;18.60;99.90
31387;DHT22;18017;50.124;8.688;2022-08-16T04:35:25;18.70;99.90
31387;DHT22;18017;50.124;8.688;2022-08-16T04:37:51;18.70;99.90
31387;DHT22;18017;50.124;8.688;2022-08-16T04:40:21;18.70;99.90
31387;DHT22;18017;50.124;8.688;2022-08-16T04:42:47;18.70;99.90
31387;DHT22;18017;50.124;8.688;2022-08-16T04:45:16;18.70;99.90
31387;DHT22;18017;50.124;8.688;2022-08-16T04:47:42;18.70;99.90
31387;DHT22;18017;50.124;8.688;2022-08-16T04:50:13;18.80;99.90
31387;DHT22;18017;50.124;8.688;2022-08-16T04:52:39;18.80;99.90
31387;DHT22;18017;50.124;8.688;2022-08-16T04:55:10;18.80;99.90
31387;DHT22;18017;50.124;8.688;2022-08-16T04:57:39;18.80;99.90
31387;DHT22;18017;50.124;8.688;2022-08-16T05:00:11;18.90;99.90
31387;DHT22;18017;50.124;8.688;2022-08-16T05:02:38;18.90;99.90
31387;DHT22;18017;50.124;8.688;2022-08-16T05:05:05;18.90;99.90
31387;DHT22;18017;50.124;8.688;2022-08-16T05:07:31;19.00;99.90
31387;DHT22;18017;50.124;8.688;2022-08-16T05:09:57;19.00;99.90
31387;DHT22;18017;50.124;8.688;2022-08-16T05:12:22;19.10;99.90
31387;DHT22;18017;50.124;8.688;2022-08-16T05:14:48;19.00;99.90
31387;DHT22;18017;50.124;8.688;2022-08-16T05:17:13;19.10;99.90
31387;DHT22;18017;50.124;8.688;2022-08-16T05:19:39;19.20;99.90
31387;DHT22;18017;50.124;8.688;2022-08-16T05:22:04;19.20;99.90
31387;DHT22;18017;50.124;8.688;2022-08-16T05:24:30;19.20;99.90
31387;DHT22;18017;50.124;8.688;2022-08-16T05:26:56;19.30;99.90
31387;DHT22;18017;50.124;8.688;2022-08-16T05:29:21;19.50;99.90
31387;DHT22;18017;50.124;8.688;2022-08-16T05:31:47;19.80;99.90
31387;DHT22;18017;50.124;8.688;2022-08-16T05:34:12;20.20;99.90
31387;DHT22;18017;50.124;8.688;2022-08-16T05:36:38;20.50;99.90
31387;DHT22;18017;50.124;8.688;2022-08-16T05:39:06;20.90;99.90
31387;DHT22;18017;50.124;8.688;2022-08-16T05:41:32;21.20;99.90
31387;DHT22;18017;50.124;8.688;2022-08-16T05:43:58;21.60;99.90
31387;DHT22;18017;50.124;8.688;2022-08-16T05:46:25;21.90;99.90
31387;DHT22;18017;50.124;8.688;2022-08-16T05:48:51;22.30;99.90
31387;DHT22;18017;50.124;8.688;2022-08-16T05:51:16;22.60;99.90
31387;DHT22;18017;50.124;8.688;2022-08-16T05:53:43;23.00;99.90
31387;DHT22;18017;50.124;8.688;2022-08-16T05:56:08;23.20;99.90
31387;DHT22;18017;50.124;8.688;2022-08-16T05:58:34;23.50;99.90
31387;DHT22;18017;50.124;8.688;2022-08-16T06:00:59;23.90;99.90
31387;DHT22;18017;50.124;8.688;2022-08-16T06:03:25;24.30;99.90
31387;DHT22;18017;50.124;8.688;2022-08-16T06:05:51;24.60;99.90
31387;DHT22;18017;50.124;8.688;2022-08-16T06:08:16;24.80;99.90
31387;DHT22;18017;50.124;8.688;2022-08-16T06:10:42;25.40;99.90
31387;DHT22;18017;50.124;8.688;2022-08-16T06:13:07;26.00;99.90
31387;DHT22;18017;50.124;8.688;2022-08-16T06:15:33;26.80;99.90
31387;DHT22;18017;50.124;8.688;2022-08-16T06:17:59;27.20;99.90
31387;DHT22;18017;50.124;8.688;2022-08-16T06:20:26;27.60;99.90
31387;DHT22;18017;50.124;8.688;2022-08-16T06:22:54;28.00;99.90
31387;DHT22;18017;50.124;8.688;2022-08-16T06:25:22;28.50;99.90
31387;DHT22;18017;50.124;8.688;2022-08-16T06:27:48;29.20;99.90
31387;DHT22;18017;50.124;8.688;2022-08-16T06:30:14;30.00;99.90
31387;DHT22;18017;50.124;8.688;2022-08-16T06:32:40;30.50;99.90
31387;DHT22;18017;50.124;8.688;2022-08-16T06:35:06;30.80;99.90
31387;DHT22;18017;50.124;8.688;2022-08-16T06:37:32;30.70;99.90
31387;DHT22;18017;50.124;8.688;2022-08-16T06:39:58;30.60;99.90
31387;DHT22;18017;50.124;8.688;2022-08-16T06:42:24;30.80;99.90
31387;DHT22;18017;50.124;8.688;2022-08-16T06:44:49;31.30;99.40
31387;DHT22;18017;50.124;8.688;2022-08-16T06:47:15;32.30;98.40
31387;DHT22;18017;50.124;8.688;2022-08-16T06:49:41;32.80;97.10
31387;DHT22;18017;50.124;8.688;2022-08-16T06:52:07;33.40;96.20
31387;DHT22;18017;50.124;8.688;2022-08-16T06:54:34;33.10;95.50
31387;DHT22;18017;50.124;8.688;2022-08-16T06:56:59;33.50;95.20
31387;DHT22;18017;50.124;8.688;2022-08-16T06:59:25;33.70;94.20
31387;DHT22;18017;50.124;8.688;2022-08-16T07:01:51;34.50;94.00
31387;DHT22;18017;50.124;8.688;2022-08-16T07:04:17;35.20;93.00
31387;DHT22;18017;50.124;8.688;2022-08-16T07:06:43;35.40;92.40
31387;DHT22;18017;50.124;8.688;2022-08-16T07:09:09;35.60;91.70
31387;DHT22;18017;50.124;8.688;2022-08-16T07:11:35;35.70;91.60
31387;DHT22;18017;50.124;8.688;2022-08-16T07:14:01;36.40;91.10
31387;DHT22;18017;50.124;8.688;2022-08-16T07:16:26;37.30;90.20
31387;DHT22;18017;50.124;8.688;2022-08-16T07:18:52;37.30;88.40
31387;DHT22;18017;50.124;8.688;2022-08-16T07:21:18;36.80;89.10
31387;DHT22;18017;50.124;8.688;2022-08-16T07:23:43;37.60;87.70
31387;DHT22;18017;50.124;8.688;2022-08-16T07:26:21;36.10;88.40
31387;DHT22;18017;50.124;8.688;2022-08-16T07:28:47;36.40;87.80
31387;DHT22;18017;50.124;8.688;2022-08-16T07:31:13;36.60;87.70
31387;DHT22;18017;50.124;8.688;2022-08-16T07:33:39;36.80;87.10
31387;DHT22;18017;50.124;8.688;2022-08-16T07:36:07;38.10;85.20
31387;DHT22;18017;50.124;8.688;2022-08-16T07:38:33;38.10;85.10
31387;DHT22;18017;50.124;8.688;2022-08-16T07:40:59;36.50;86.20
31387;DHT22;18017;50.124;8.688;2022-08-16T07:43:25;38.60;84.30
31387;DHT22;18017;50.124;8.688;2022-08-16T07:45:52;40.80;82.20
31387;DHT22;18017;50.124;8.688;2022-08-16T07:48:19;40.40;80.60
31387;DHT22;18017;50.124;8.688;2022-08-16T07:50:45;38.50;82.00
31387;DHT22;18017;50.124;8.688;2022-08-16T07:53:11;39.20;81.30
31387;DHT22;18017;50.124;8.688;2022-08-16T07:55:37;39.80;80.50
31387;DHT22;18017;50.124;8.688;2022-08-16T07:58:03;40.50;79.90
31387;DHT22;18017;50.124;8.688;2022-08-16T08:00:31;42.40;77.90
31387;DHT22;18017;50.124;8.688;2022-08-16T08:02:56;41.80;77.10
31387;DHT22;18017;50.124;8.688;2022-08-16T08:05:25;43.50;76.00
31387;DHT22;18017;50.124;8.688;2022-08-16T08:07:52;43.60;75.10
31387;DHT22;18017;50.124;8.688;2022-08-16T08:10:19;43.10;74.50
31387;DHT22;18017;50.124;8.688;2022-08-16T08:12:47;42.50;74.90
31387;DHT22;18017;50.124;8.688;2022-08-16T08:15:13;43.20;74.30
31387;DHT22;18017;50.124;8.688;2022-08-16T08:17:40;44.90;72.60
31387;DHT22;18017;50.124;8.688;2022-08-16T08:20:08;45.00;71.70
31387;DHT22;18017;50.124;8.688;2022-08-16T08:22:34;44.60;71.50
31387;DHT22;18017;50.124;8.688;2022-08-16T08:25:01;43.60;71.90
31387;DHT22;18017;50.124;8.688;2022-08-16T08:27:27;44.70;71.00
31387;DHT22;18017;50.124;8.688;2022-08-16T08:29:53;46.00;70.00
31387;DHT22;18017;50.124;8.688;2022-08-16T08:32:19;45.80;69.70
31387;DHT22;18017;50.124;8.688;2022-08-16T08:34:46;46.60;69.20
31387;DHT22;18017;50.124;8.688;2022-08-16T08:37:12;46.10;69.10
31387;DHT22;18017;50.124;8.688;2022-08-16T08:39:38;47.30;68.30
31387;DHT22;18017;50.124;8.688;2022-08-16T08:42:04;48.30;67.40
31387;DHT22;18017;50.124;8.688;2022-08-16T08:44:31;48.70;67.30
31387;DHT22;18017;50.124;8.688;2022-08-16T08:46:59;49.30;65.70
31387;DHT22;18017;50.124;8.688;2022-08-16T08:49:24;48.30;66.00
31387;DHT22;18017;50.124;8.688;2022-08-16T08:51:50;48.40;66.10
31387;DHT22;18017;50.124;8.688;2022-08-16T08:54:16;49.70;65.30
31387;DHT22;18017;50.124;8.688;2022-08-16T08:56:42;49.30;64.40
31387;DHT22;18017;50.124;8.688;2022-08-16T08:59:07;47.50;65.70
31387;DHT22;18017;50.124;8.688;2022-08-16T09:01:36;47.60;64.80
31387;DHT22;18017;50.124;8.688;2022-08-16T09:04:03;47.80;64.70
31387;DHT22;18017;50.124;8.688;2022-08-16T09:06:29;47.70;64.70
31387;DHT22;18017;50.124;8.688;2022-08-16T09:08:58;48.80;64.40
31387;DHT22;18017;50.124;8.688;2022-08-16T09:11:25;49.00;63.30
31387;DHT22;18017;50.124;8.688;2022-08-16T09:13:51;47.20;63.70
31387;DHT22;18017;50.124;8.688;2022-08-16T09:16:17;48.50;63.90
31387;DHT22;18017;50.124;8.688;2022-08-16T09:18:44;50.00;63.10
31387;DHT22;18017;50.124;8.688;2022-08-16T09:21:10;48.20;63.60
31387;DHT22;18017;50.124;8.688;2022-08-16T09:23:37;48.50;63.20
31387;DHT22;18017;50.124;8.688;2022-08-16T09:26:08;49.20;63.40
31387;DHT22;18017;50.124;8.688;2022-08-16T09:28:36;49.80;62.50
31387;DHT22;18017;50.124;8.688;2022-08-16T09:31:02;52.30;62.30
31387;DHT22;18017;50.124;8.688;2022-08-16T09:33:28;52.60;61.30
31387;DHT22;18017;50.124;8.688;2022-08-16T09:35:54;53.90;60.60
31387;DHT22;18017;50.124;8.688;2022-08-16T09:38:21;53.80;59.60
31387;DHT22;18017;50.124;8.688;2022-08-16T09:40:46;53.80;59.90
31387;DHT22;18017;50.124;8.688;2022-08-16T09:43:15;54.40;59.60
31387;DHT22;18017;50.124;8.688;2022-08-16T09:45:41;53.90;59.30
31387;DHT22;18017;50.124;8.688;2022-08-16T09:48:09;54.40;59.20
31387;DHT22;18017;50.124;8.688;2022-08-16T09:50:36;50.90;59.60
31387;DHT22;18017;50.124;8.688;2022-08-16T09:53:04;51.80;59.90
31387;DHT22;18017;50.124;8.688;2022-08-16T09:55:30;50.30;60.20
31387;DHT22;18017;50.124;8.688;2022-08-16T09:57:56;50.20;60.60
31387;DHT22;18017;50.124;8.688;2022-08-16T10:00:23;51.40;59.80
31387;DHT22;18017;50.124;8.688;2022-08-16T10:02:48;51.80;59.70
31387;DHT22;18017;50.124;8.688;2022-08-16T10:05:17;52.40;59.20
31387;DHT22;18017;50.124;8.688;2022-08-16T10:07:43;52.50;59.10
31387;DHT22;18017;50.124;8.688;2022-08-16T10:10:14;51.40;59.50
31387;DHT22;18017;50.124;8.688;2022-08-16T10:12:39;47.10;60.20
31387;DHT22;18017;50.124;8.688;2022-08-16T10:15:24;48.30;61.00
31387;DHT22;18017;50.124;8.688;2022-08-16T10:17:54;49.70;60.80
31387;DHT22;18017;50.124;8.688;2022-08-16T10:20:20;50.20;59.70
31387;DHT22;18017;50.124;8.688;2022-08-16T10:22:48;50.70;59.80
31387;DHT22;18017;50.124;8.688;2022-08-16T10:25:14;51.70;59.30
31387;DHT22;18017;50.124;8.688;2022-08-16T10:27:39;52.30;59.10
31387;DHT22;18017;50.124;8.688;2022-08-16T10:30:06;51.60;59.00
31387;DHT22;18017;50.124;8.688;2022-08-16T10:32:32;49.80;59.50
31387;DHT22;18017;50.124;8.688;2022-08-16T10:34:58;49.50;59.80
31387;DHT22;18017;50.124;8.688;2022-08-16T10:37:24;45.70;59.70
31387;DHT22;18017;50.124;8.688;2022-08-16T10:39:50;46.40;61.70
31387;DHT22;18017;50.124;8.688;2022-08-16T10:42:15;48.60;60.40
31387;DHT22;18017;50.124;8.688;2022-08-16T10:44:42;50.20;59.30
31387;DHT22;18017;50.124;8.688;2022-08-16T10:47:08;50.50;59.00
31387;DHT22;18017;50.124;8.688;2022-08-16T10:49:34;51.90;58.70
31387;DHT22;18017;50.124;8.688;2022-08-16T10:52:01;53.40;58.00
31387;DHT22;18017;50.124;8.688;2022-08-16T10:54:26;53.30;57.50
31387;DHT22;18017;50.124;8.688;2022-08-16T10:56:52;53.40;58.00
31387;DHT22;18017;50.124;8.688;2022-08-16T10:59:20;54.30;57.70
31387;DHT22;18017;50.124;8.688;2022-08-16T11:01:46;53.30;57.50
31387;DHT22;18017;50.124;8.688;2022-08-16T11:04:11;52.60;57.70
31387;DHT22;18017;50.124;8.688;2022-08-16T11:06:39;50.90;58.00
31387;DHT22;18017;50.124;8.688;2022-08-16T11:09:04;49.70;58.70
31387;DHT22;18017;50.124;8.688;2022-08-16T11:11:30;50.40;58.50
31387;DHT22;18017;50.124;8.688;2022-08-16T11:13:56;51.40;58.00
31387;DHT22;18017;50.124;8.688;2022-08-16T11:16:21;51.30;57.50
31387;DHT22;18017;50.124;8.688;2022-08-16T11:18:47;50.90;57.80
31387;DHT22;18017;50.124;8.688;2022-08-16T11:21:13;50.30;58.10
31387;DHT22;18017;50.124;8.688;2022-08-16T11:23:40;50.10;58.00
31387;DHT22;18017;50.124;8.688;2022-08-16T11:26:06;48.50;58.60
31387;DHT22;18017;50.124;8.688;2022-08-16T11:28:33;49.20;58.50
31387;DHT22;18017;50.124;8.688;2022-08-16T11:31:00;49.60;58.50
31387;DHT22;18017;50.124;8.688;2022-08-16T11:33:26;50.30;58.40
31387;DHT22;18017;50.124;8.688;2022-08-16T11:35:51;50.70;58.40
31387;DHT22;18017;50.124;8.688;2022-08-16T11:38:20;50.80;58.50
31387;DHT22;18017;50.124;8.688;2022-08-16T11:40:52;51.20;57.90
31387;DHT22;18017;50.124;8.688;2022-08-16T11:43:27;46.80;57.80
31387;DHT22;18017;50.124;8.688;2022-08-16T11:45:55;48.40;59.00
31387;DHT22;18017;50.124;8.688;2022-08-16T11:48:25;48.60;59.00
31387;DHT22;18017;50.124;8.688;2022-08-16T11:50:51;48.00;58.90
31387;DHT22;18017;50.124;8.688;2022-08-16T11:53:17;47.30;59.40
31387;DHT22;18017;50.124;8.688;2022-08-16T11:55:44;47.00;59.70
31387;DHT22;18017;50.124;8.688;2022-08-16T11:58:11;47.10;59.30
31387;DHT22;18017;50.124;8.688;2022-08-16T12:00:39;45.70;59.80
31387;DHT22;18017;50.124;8.688;2022-08-16T12:03:04;45.90;60.10
31387;DHT22;18017;50.124;8.688;2022-08-16T12:05:30;44.70;60.50
31387;DHT22;18017;50.124;8.688;2022-08-16T12:07:56;44.30;60.90
31387;DHT22;18017;50.124;8.688;2022-08-16T12:10:24;44.40;60.90
31387;DHT22;18017;50.124;8.688;2022-08-16T12:12:49;44.50;60.90
31387;DHT22;18017;50.124;8.688;2022-08-16T12:15:17;44.70;61.10
31387;DHT22;18017;50.124;8.688;2022-08-16T12:17:43;46.30;60.40
31387;DHT22;18017;50.124;8.688;2022-08-16T12:20:18;46.10;60.60
31387;DHT22;18017;50.124;8.688;2022-08-16T12:22:45;44.50;61.00
31387;DHT22;18017;50.124;8.688;2022-08-16T12:25:15;43.90;61.30
31387;DHT22;18017;50.124;8.688;2022-08-16T12:27:43;43.70;61.60
31387;DHT22;18017;50.124;8.688;2022-08-16T12:30:10;44.20;61.30
31387;DHT22;18017;50.124;8.688;2022-08-16T12:32:37;45.20;61.00
31387;DHT22;18017;50.124;8.688;2022-08-16T12:35:03;45.20;60.20
31387;DHT22;18017;50.124;8.688;2022-08-16T12:37:31;45.20;60.40
31387;DHT22;18017;50.124;8.688;2022-08-16T12:39:56;44.50;60.60
31387;DHT22;18017;50.124;8.688;2022-08-16T12:42:23;44.00;61.00
31387;DHT22;18017;50.124;8.688;2022-08-16T12:44:49;43.90;61.20
31387;DHT22;18017;50.124;8.688;2022-08-16T12:47:15;44.70;60.60
31387;DHT22;18017;50.124;8.688;2022-08-16T12:49:59;45.00;60.20
31387;DHT22;18017;50.124;8.688;2022-08-16T12:52:26;44.20;60.00
31387;DHT22;18017;50.124;8.688;2022-08-16T12:54:52;42.70;60.50
31387;DHT22;18017;50.124;8.688;2022-08-16T12:57:19;42.00;61.60
31387;DHT22;18017;50.124;8.688;2022-08-16T12:59:47;42.90;60.50
31387;DHT22;18017;50.124;8.688;2022-08-16T13:02:13;43.20;60.20
31387;DHT22;18017;50.124;8.688;2022-08-16T13:04:39;42.40;60.40
31387;DHT22;18017;50.124;8.688;2022-08-16T13:07:05;41.80;61.20
31387;DHT22;18017;50.124;8.688;2022-08-16T13:09:31;41.80;61.00
31387;DHT22;18017;50.124;8.688;2022-08-16T13:12:01;40.80;61.20
31387;DHT22;18017;50.124;8.688;2022-08-16T13:14:36;40.70;61.70
31387;DHT22;18017;50.124;8.688;2022-08-16T13:17:06;41.30;61.30
31387;DHT22;18017;50.124;8.688;2022-08-16T13:19:32;40.60;61.40
31387;DHT22;18017;50.124;8.688;2022-08-16T13:21:58;40.40;60.70
31387;DHT22;18017;50.124;8.688;2022-08-16T13:24:23;39.90;61.40
31387;DHT22;18017;50.124;8.688;2022-08-16T13:26:50;39.60;61.50
31387;DHT22;18017;50.124;8.688;2022-08-16T13:29:15;39.00;62.30
31387;DHT22;18017;50.124;8.688;2022-08-16T13:31:41;38.90;61.80
31387;DHT22;18017;50.124;8.688;2022-08-16T13:34:07;38.50;62.50
31387;DHT22;18017;50.124;8.688;2022-08-16T13:36:32;39.00;62.20
31387;DHT22;18017;50.124;8.688;2022-08-16T13:38:58;39.10;61.30
31387;DHT22;18017;50.124;8.688;2022-08-16T13:41:24;39.10;61.40
31387;DHT22;18017;50.124;8.688;2022-08-16T13:43:52;39.20;61.30
31387;DHT22;18017;50.124;8.688;2022-08-16T13:46:18;39.70;61.00
31387;DHT22;18017;50.124;8.688;2022-08-16T13:48:43;38.80;61.20
31387;DHT22;18017;50.124;8.688;2022-08-16T13:51:10;38.30;61.80
31387;DHT22;18017;50.124;8.688;2022-08-16T13:53:35;38.10;61.90
31387;DHT22;18017;50.124;8.688;2022-08-16T13:56:01;37.70;62.50
31387;DHT22;18017;50.124;8.688;2022-08-16T13:58:27;37.70;62.20
31387;DHT22;18017;50.124;8.688;2022-08-16T14:00:53;37.90;62.10
31387;DHT22;18017;50.124;8.688;2022-08-16T14:03:18;37.50;62.10
31387;DHT22;18017;50.124;8.688;2022-08-16T14:05:46;37.20;62.30
31387;DHT22;18017;50.124;8.688;2022-08-16T14:08:12;37.20;63.20
31387;DHT22;18017;50.124;8.688;2022-08-16T14:10:37;36.80;66.80
31387;DHT22;18017;50.124;8.688;2022-08-16T14:13:03;36.50;68.60
31387;DHT22;18017;50.124;8.688;2022-08-16T14:15:31;36.50;68.20
31387;DHT22;18017;50.124;8.688;2022-08-16T14:17:57;36.70;62.80
31387;DHT22;18017;50.124;8.688;2022-08-16T14:20:23;36.80;63.60
31387;DHT22;18017;50.124;8.688;2022-08-16T14:22:50;36.00;64.00
31387;DHT22;18017;50.124;8.688;2022-08-16T14:25:18;35.40;63.90
31387;DHT22;18017;50.124;8.688;2022-08-16T14:27:45;35.30;64.10
31387;DHT22;18017;50.124;8.688;2022-08-16T14:30:13;35.00;64.30
31387;DHT22;18017;50.124;8.688;2022-08-16T14:32:40;35.00;64.50
31387;DHT22;18017;50.124;8.688;2022-08-16T14:35:11;34.90;64.10
31387;DHT22;18017;50.124;8.688;2022-08-16T14:37:38;35.00;64.10
31387;DHT22;18017;50.124;8.688;2022-08-16T14:40:06;34.80;64.40
31387;DHT22;18017;50.124;8.688;2022-08-16T14:42:33;34.20;64.90
31387;DHT22;18017;50.124;8.688;2022-08-16T14:45:01;34.30;65.10
31387;DHT22;18017;50.124;8.688;2022-08-16T14:47:28;34.50;64.60
31387;DHT22;18017;50.124;8.688;2022-08-16T14:49:53;34.60;64.60
31387;DHT22;18017;50.124;8.688;2022-08-16T14:52:21;34.90;64.40
31387;DHT22;18017;50.124;8.688;2022-08-16T14:54:48;35.20;64.00
31387;DHT22;18017;50.124;8.688;2022-08-16T14:57:14;35.00;64.00
31387;DHT22;18017;50.124;8.688;2022-08-16T14:59:41;34.40;64.10
31387;DHT22;18017;50.124;8.688;2022-08-16T15:02:15;33.80;64.50
31387;DHT22;18017;50.124;8.688;2022-08-16T15:04:41;33.50;64.10
31387;DHT22;18017;50.124;8.688;2022-08-16T15:07:09;33.20;64.70
31387;DHT22;18017;50.124;8.688;2022-08-16T15:09:35;33.20;64.70
31387;DHT22;18017;50.124;8.688;2022-08-16T15:12:05;33.10;65.00
31387;DHT22;18017;50.124;8.688;2022-08-16T15:14:31;33.00;65.00
31387;DHT22;18017;50.124;8.688;2022-08-16T15:16:57;32.80;65.40
31387;DHT22;18017;50.124;8.688;2022-08-16T15:19:22;32.70;65.50
31387;DHT22;18017;50.124;8.688;2022-08-16T15:21:48;32.40;65.50
31387;DHT22;18017;50.124;8.688;2022-08-16T15:24:14;32.20;66.10
31387;DHT22;18017;50.124;8.688;2022-08-16T15:26:40;32.10;66.10
31387;DHT22;18017;50.124;8.688;2022-08-16T15:29:05;31.90;66.10